createdAt,value
2022-08-05T03:21:03.895Z,17.55
2022-08-05T03:23:35.591Z,17.53
2022-08-05T03:26:32.061Z,17.51
2022-08-05T03:28:59.798Z,17.48
2022-08-05T03:31:56.244Z,17.42
2022-08-05T03:34:20.686Z,17.39
2022-08-05T03:36:55.597Z,17.35
2022-08-05T03:39:27.320Z,17.32
2022-08-05T03:41:57.996Z,17.32
2022-08-05T03:44:28.936Z,17.32
2022-08-05T03:46:58.892Z,17.34
2022-08-05T03:49:31.149Z,17.34
2022-08-05T03:52:38.697Z,17.34
2022-08-05T03:56:01.658Z,17.33
2022-08-05T03:58:21.041Z,17.32
2022-08-05T04:01:01.347Z,17.35
2022-08-05T04:03:38.121Z,17.66
2022-08-05T04:06:09.312Z,18.01
2022-08-05T04:08:41.009Z,18.34
2022-08-05T04:11:11.029Z,18.74
2022-08-05T04:13:50.840Z,18.97
2022-08-05T04:16:24.156Z,19.15
2022-08-05T04:18:57.690Z,19.20
2022-08-05T04:22:08.318Z,19.29
2022-08-05T04:24:19.274Z,19.34
2022-08-05T04:26:52.250Z,19.42
2022-08-05T04:29:22.223Z,19.43
2022-08-05T04:31:52.600Z,19.66
2022-08-05T04:34:32.638Z,19.76
2022-08-05T04:37:05.625Z,19.81
2022-08-05T04:39:36.612Z,19.85
2022-08-05T04:42:07.996Z,19.92
2022-08-05T04:44:38.792Z,19.98
2022-08-05T04:47:20.200Z,19.99
2022-08-05T04:50:01.574Z,20.09
2022-08-05T04:52:36.250Z,20.19
2022-08-05T04:55:14.905Z,20.25
2022-08-05T04:57:47.481Z,20.29
2022-08-05T05:00:18.820Z,20.34
2022-08-05T05:02:53.308Z,20.34
2022-08-05T05:05:28.335Z,20.33
2022-08-05T05:08:03.029Z,20.29
2022-08-05T05:10:41.963Z,20.26
2022-08-05T05:13:25.572Z,20.21
2022-08-05T05:16:00.508Z,20.21
2022-08-05T05:18:35.369Z,20.25
2022-08-05T05:21:05.699Z,20.31
2022-08-05T05:24:02.550Z,20.39
2022-08-05T05:26:28.335Z,20.49
2022-08-05T05:29:14.168Z,20.57
2022-08-05T05:31:46.509Z,20.80
2022-08-05T05:34:21.173Z,20.98
2022-08-05T05:36:53.677Z,21.11
2022-08-05T05:39:23.309Z,21.23
2022-08-05T05:41:54.694Z,21.36
2022-08-05T05:44:36.419Z,21.59
2022-08-05T05:47:13.108Z,21.87
2022-08-05T05:49:52.642Z,22.01
2022-08-05T05:52:30.061Z,22.05
2022-08-05T05:55:13.097Z,22.09
2022-08-05T05:57:52.348Z,22.10
2022-08-05T06:00:27.740Z,22.12
2022-08-05T06:03:03.001Z,22.15
2022-08-05T06:05:32.756Z,22.36
2022-08-05T06:08:03.941Z,22.54
2022-08-05T06:10:36.654Z,22.63
2022-08-05T06:13:08.488Z,22.87
2022-08-05T06:16:30.596Z,23.06
2022-08-05T06:18:30.960Z,23.29
2022-08-05T06:21:01.472Z,23.40
2022-08-05T06:23:32.179Z,23.49
2022-08-05T06:26:24.065Z,23.74
2022-08-05T06:28:56.044Z,23.82
2022-08-05T06:31:30.491Z,24.00
2022-08-05T06:34:07.406Z,24.13
2022-08-05T06:36:57.513Z,24.25
2022-08-05T06:39:28.287Z,24.35
2022-08-05T06:42:01.281Z,24.47
2022-08-05T06:44:35.415Z,24.61
2022-08-05T06:47:05.157Z,24.69
2022-08-05T06:50:01.932Z,24.72
2022-08-05T06:52:37.828Z,24.68
2022-08-05T06:55:10.679Z,24.70
2022-08-05T06:57:57.534Z,24.79
2022-08-05T07:00:31.401Z,24.83
2022-08-05T07:03:00.965Z,24.87
2022-08-05T07:05:37.127Z,24.90
2022-08-05T07:08:11.022Z,25.00
2022-08-05T07:10:53.393Z,25.09
2022-08-05T07:13:59.164Z,25.09
2022-08-05T07:17:59.722Z,25.17
2022-08-05T07:22:30.168Z,25.24
2022-08-05T07:25:22.695Z,25.25
2022-08-05T07:27:57.993Z,25.32
2022-08-05T07:30:32.598Z,25.40
2022-08-05T07:33:09.240Z,25.35
2022-08-05T07:36:03.870Z,25.33
2022-08-05T07:38:33.246Z,25.22
2022-08-05T07:42:07.063Z,25.09
2022-08-05T07:43:57.561Z,25.01
2022-08-05T07:46:29.397Z,24.91
2022-08-05T07:49:06.155Z,24.86
2022-08-05T07:51:48.663Z,24.91
2022-08-05T07:54:30.398Z,24.99
2022-08-05T07:57:22.753Z,24.96
2022-08-05T07:59:54.009Z,24.93
2022-08-05T08:02:31.382Z,24.91
2022-08-05T08:05:18.818Z,24.80
2022-08-05T08:08:00.215Z,24.74
2022-08-05T08:10:30.509Z,24.64
2022-08-05T08:13:00.734Z,24.48
2022-08-05T08:16:34.606Z,24.43
2022-08-05T08:18:21.798Z,24.35
2022-08-05T08:21:03.135Z,24.31
2022-08-05T08:24:02.637Z,24.44
2022-08-05T08:26:26.850Z,24.69
2022-08-05T08:29:09.727Z,24.87
2022-08-05T08:31:52.111Z,25.05
2022-08-05T08:34:30.557Z,25.24
2022-08-05T08:37:05.170Z,25.39
2022-08-05T08:39:37.324Z,25.56
2022-08-05T08:42:32.610Z,25.69
2022-08-05T08:45:22.763Z,25.81
2022-08-05T08:48:12.528Z,25.99
2022-08-05T08:51:07.577Z,26.11
2022-08-05T08:53:44.998Z,26.19
2022-08-05T08:56:15.358Z,26.35
2022-08-05T08:58:48.574Z,26.55
2022-08-05T09:01:20.030Z,26.61
2022-08-05T09:03:57.402Z,26.74
2022-08-05T09:06:31.157Z,26.95
2022-08-05T09:09:03.109Z,26.97
2022-08-05T09:11:51.090Z,26.86
2022-08-05T09:14:57.715Z,26.72
2022-08-05T09:17:16.084Z,26.80
2022-08-05T09:20:08.438Z,27.00
2022-08-05T09:23:19.176Z,27.15
2022-08-05T09:26:02.418Z,27.25
2022-08-05T09:28:35.015Z,27.36
2022-08-05T09:32:38.593Z,27.64
2022-08-05T09:34:01.649Z,27.80
2022-08-05T09:36:45.712Z,27.85
2022-08-05T09:39:27.765Z,27.90
2022-08-05T09:42:23.152Z,27.92
2022-08-05T09:44:56.200Z,27.92
2022-08-05T09:47:36.383Z,27.82
2022-08-05T09:50:37.417Z,27.83
2022-08-05T09:53:09.150Z,27.79
2022-08-05T09:55:58.411Z,27.86
2022-08-05T09:58:33.510Z,28.05
2022-08-05T10:01:15.295Z,28.11
2022-08-05T10:04:03.137Z,28.16
2022-08-05T10:06:35.075Z,28.11
2022-08-05T10:09:25.023Z,28.14
2022-08-05T10:12:30.497Z,28.23
2022-08-05T10:15:22.515Z,28.39
2022-08-05T10:18:12.364Z,28.57
2022-08-05T10:20:48.314Z,28.81
2022-08-05T10:23:55.706Z,28.90
2022-08-05T10:26:14.494Z,29.11
2022-08-05T10:28:46.602Z,29.26
2022-08-05T10:32:49.379Z,29.48
2022-08-05T10:34:10.825Z,29.57
2022-08-05T10:36:42.717Z,29.56
2022-08-05T10:39:24.840Z,29.73
2022-08-05T10:42:18.474Z,29.80
2022-08-05T10:44:55.929Z,29.87
2022-08-05T10:47:36.766Z,30.03
2022-08-05T10:50:20.867Z,30.12
2022-08-05T10:53:03.257Z,29.98
2022-08-05T10:56:03.826Z,30.07
2022-08-05T10:58:23.317Z,30.02
2022-08-05T11:01:13.632Z,30.05
2022-08-05T11:04:12.016Z,30.01
2022-08-05T11:07:09.085Z,30.07
2022-08-05T11:09:47.049Z,30.10
2022-08-05T11:12:54.502Z,30.00
2022-08-05T11:15:59.074Z,29.90
2022-08-05T11:18:32.246Z,29.73
2022-08-05T11:21:11.183Z,29.86
2022-08-05T11:24:04.620Z,30.17
2022-08-05T11:26:43.463Z,30.53
2022-08-05T11:29:37.929Z,30.87
2022-08-05T11:32:28.279Z,31.10
2022-08-05T11:34:58.777Z,31.28
2022-08-05T11:38:28.477Z,30.94
2022-08-05T11:41:34.293Z,30.86
2022-08-05T11:44:05.797Z,30.93
2022-08-05T11:46:58.312Z,30.80
2022-08-05T11:49:33.933Z,30.80
2022-08-05T11:52:08.831Z,30.91
2022-08-05T11:54:43.426Z,30.88
2022-08-05T11:57:24.841Z,30.92
2022-08-05T11:59:56.305Z,31.12
2022-08-05T12:02:33.472Z,31.20
2022-08-05T12:05:17.927Z,31.37
2022-08-05T12:08:07.348Z,31.28
2022-08-05T12:10:45.612Z,31.24
2022-08-05T12:13:28.161Z,31.20
2022-08-05T12:16:15.070Z,31.64
2022-08-05T12:18:49.465Z,32.16
2022-08-05T12:21:30.450Z,32.49
2022-08-05T12:24:07.188Z,32.70
2022-08-05T12:26:43.981Z,32.74
2022-08-05T12:29:22.546Z,32.77
2022-08-05T12:31:56.139Z,32.98
2022-08-05T12:34:31.073Z,33.16
2022-08-05T12:37:10.573Z,33.26
2022-08-05T12:39:41.722Z,33.24
2022-08-05T12:42:20.432Z,33.16
2022-08-05T12:44:50.756Z,32.70
2022-08-05T12:47:31.783Z,32.30
2022-08-05T12:50:06.433Z,32.33
2022-08-05T12:52:38.782Z,32.52
2022-08-05T12:55:23.594Z,32.78
2022-08-05T12:58:48.440Z,33.15
2022-08-05T13:02:03.366Z,33.75
2022-08-05T13:03:43.281Z,34.31
2022-08-05T13:06:19.820Z,34.81
2022-08-05T13:08:51.440Z,35.02
2022-08-05T13:11:47.018Z,35.23
2022-08-05T13:14:36.562Z,35.32
2022-08-05T13:17:12.179Z,35.52
2022-08-05T13:19:51.867Z,35.76
2022-08-05T13:22:28.379Z,36.18
2022-08-05T13:25:05.159Z,36.47
2022-08-05T13:27:39.579Z,36.70
2022-08-05T13:30:34.733Z,36.93
2022-08-05T13:33:05.569Z,37.24
2022-08-05T13:35:47.395Z,37.43
2022-08-05T13:38:31.057Z,37.59
2022-08-05T13:41:06.470Z,37.36
2022-08-05T13:43:45.197Z,36.87
2022-08-05T13:46:50.583Z,36.50
2022-08-05T13:49:17.280Z,36.00
2022-08-05T13:51:47.161Z,35.84
2022-08-05T13:54:21.072Z,36.01
2022-08-05T13:56:55.423Z,36.46
2022-08-05T13:59:27.396Z,36.55
2022-08-05T14:02:02.904Z,36.49
2022-08-05T14:04:54.623Z,36.46
2022-08-05T14:07:59.920Z,36.59
2022-08-05T14:10:28.109Z,36.69
2022-08-05T14:12:59.733Z,36.81
2022-08-05T14:16:04.343Z,36.98
2022-08-05T14:18:23.222Z,37.21
2022-08-05T14:20:54.951Z,37.36
2022-08-05T14:23:27.439Z,37.21
2022-08-05T14:26:02.540Z,37.26
2022-08-05T14:28:34.522Z,37.32
2022-08-05T14:31:04.221Z,37.62
2022-08-05T14:34:00.361Z,37.68
2022-08-05T14:36:30.502Z,37.62
2022-08-05T14:39:00.210Z,37.50
2022-08-05T14:41:32.466Z,37.43
2022-08-05T14:44:14.480Z,37.37
2022-08-05T14:46:50.243Z,36.69
2022-08-05T14:49:21.173Z,36.52
2022-08-05T14:51:51.683Z,36.63
2022-08-05T14:54:29.757Z,36.48
2022-08-05T14:57:05.348Z,36.03
2022-08-05T14:59:43.152Z,35.92
2022-08-05T15:02:24.208Z,35.80
2022-08-05T15:04:55.285Z,35.69
2022-08-05T15:08:12.422Z,35.79
2022-08-05T15:10:14.289Z,35.92
2022-08-05T15:13:00.306Z,36.03
2022-08-05T15:15:54.087Z,36.17
2022-08-05T15:18:21.526Z,36.23
2022-08-05T15:20:52.673Z,36.35
2022-08-05T15:23:22.588Z,36.33
2022-08-05T15:25:56.645Z,36.45
2022-08-05T15:28:28.126Z,36.47
2022-08-05T15:30:58.400Z,36.27
2022-08-05T15:34:05.014Z,36.19
2022-08-05T15:36:24.468Z,35.98
2022-08-05T15:41:01.028Z,35.79
2022-08-05T15:41:56.014Z,35.56
2022-08-05T15:44:26.411Z,34.96
2022-08-05T15:46:59.262Z,34.62
2022-08-05T15:49:55.173Z,34.49
2022-08-05T15:52:29.140Z,34.18
2022-08-05T15:55:16.298Z,33.97
2022-08-05T15:57:49.010Z,33.90
2022-08-05T16:00:26.510Z,33.84
2022-08-05T16:03:09.229Z,33.78
2022-08-05T16:05:39.163Z,33.71
2022-08-05T16:08:16.111Z,33.41
2022-08-05T16:10:45.777Z,33.33
2022-08-05T16:13:19.391Z,32.94
2022-08-05T16:15:53.722Z,32.74
2022-08-05T16:18:28.093Z,32.50
2022-08-05T16:20:59.870Z,32.13
2022-08-05T16:23:53.744Z,31.90
2022-08-05T16:26:26.431Z,31.65
2022-08-05T16:28:57.085Z,31.47
2022-08-05T16:31:27.786Z,31.30
2022-08-05T16:34:17.888Z,31.13
2022-08-05T16:36:47.888Z,30.97
2022-08-05T16:39:20.606Z,30.85
2022-08-05T16:42:14.697Z,30.73
2022-08-05T16:44:40.097Z,30.57
2022-08-05T16:47:28.805Z,30.47
2022-08-05T16:50:03.364Z,30.35
2022-08-05T16:52:33.664Z,30.30
2022-08-05T16:55:05.522Z,30.14
2022-08-05T16:57:53.703Z,29.95
2022-08-05T17:00:26.010Z,29.82
2022-08-05T17:03:09.312Z,29.67
2022-08-05T17:05:50.273Z,29.59
2022-08-05T17:08:36.001Z,29.48
2022-08-05T17:11:16.884Z,29.38
2022-08-05T17:13:46.934Z,29.27
2022-08-05T17:16:33.027Z,29.16
2022-08-05T17:19:03.590Z,29.05
2022-08-05T17:21:39.792Z,28.95
2022-08-05T17:24:28.158Z,28.84
2022-08-05T17:27:01.598Z,28.78
2022-08-05T17:29:33.098Z,28.69
2022-08-05T17:32:17.297Z,28.64
2022-08-05T17:34:58.137Z,28.53
2022-08-05T17:37:39.648Z,28.48
2022-08-05T17:40:15.915Z,28.39
2022-08-05T17:42:50.859Z,28.33
2022-08-05T17:45:24.846Z,28.24
2022-08-05T17:47:56.466Z,28.19
2022-08-05T17:50:30.392Z,28.12
2022-08-05T17:53:02.915Z,28.09
2022-08-05T17:55:37.712Z,28.01
2022-08-05T17:58:13.359Z,27.94
2022-08-05T18:00:50.769Z,27.90
2022-08-05T18:03:58.575Z,27.83
2022-08-05T18:06:15.386Z,27.72
2022-08-05T18:08:52.626Z,27.69
2022-08-05T18:11:32.947Z,27.62
2022-08-05T18:14:07.161Z,27.55
2022-08-05T18:17:06.881Z,27.50
2022-08-05T18:19:56.345Z,27.43
2022-08-05T18:22:45.918Z,27.36
2022-08-05T18:25:17.249Z,27.29
2022-08-05T18:27:52.523Z,27.23
2022-08-05T18:30:23.517Z,27.13
2022-08-05T18:33:00.474Z,27.08
2022-08-05T18:35:49.407Z,27.00
2022-08-05T18:38:26.033Z,26.76
2022-08-05T18:41:56.590Z,26.52
2022-08-05T18:43:49.130Z,26.35
2022-08-05T18:46:20.755Z,26.25
2022-08-05T18:48:52.785Z,26.09
2022-08-05T18:52:04.400Z,25.98
2022-08-05T18:54:31.965Z,25.88
2022-08-05T18:57:02.702Z,25.78
2022-08-05T18:59:44.036Z,25.66
2022-08-05T19:02:26.694Z,25.58
2022-08-05T19:05:02.532Z,25.46
2022-08-05T19:07:52.374Z,25.37
2022-08-05T19:10:28.001Z,25.31
2022-08-05T19:12:58.610Z,25.27
2022-08-05T19:15:58.902Z,25.26
2022-08-05T19:18:22.619Z,25.20
2022-08-05T19:20:53.646Z,25.22
2022-08-05T19:24:06.524Z,25.19
2022-08-05T19:26:13.846Z,25.21
2022-08-05T19:28:44.426Z,25.12
2022-08-05T19:31:18.046Z,25.02
2022-08-05T19:33:56.462Z,24.93
2022-08-05T19:36:29.514Z,24.86
2022-08-05T19:39:00.901Z,24.74
2022-08-05T19:42:05.690Z,24.63
2022-08-05T19:44:21.938Z,24.54
2022-08-05T19:46:52.218Z,24.45
2022-08-05T19:49:23.525Z,24.33
2022-08-05T19:52:05.328Z,24.23
2022-08-05T19:54:38.584Z,24.11
2022-08-05T19:57:09.878Z,23.96
2022-08-05T19:59:56.195Z,23.79
2022-08-05T20:02:33.478Z,23.66
2022-08-05T20:05:09.597Z,23.60
2022-08-05T20:07:48.173Z,23.47
2022-08-05T20:10:22.206Z,23.42
2022-08-05T20:12:55.032Z,23.38
2022-08-05T20:15:51.568Z,23.37
2022-08-05T20:18:32.781Z,23.32
2022-08-05T20:21:07.401Z,23.17
2022-08-05T20:23:51.211Z,23.00
2022-08-05T20:26:25.689Z,22.87
2022-08-05T20:28:57.881Z,22.79
2022-08-05T20:31:42.832Z,22.77
2022-08-05T20:34:20.444Z,22.79
2022-08-05T20:36:51.306Z,22.81
2022-08-05T20:39:20.990Z,22.78
2022-08-05T20:41:51.059Z,22.51
2022-08-05T20:44:30.714Z,22.37
2022-08-05T20:47:03.264Z,22.19
2022-08-05T20:49:39.282Z,22.04
2022-08-05T20:52:12.232Z,21.77
2022-08-05T20:54:42.905Z,21.50
2022-08-05T20:57:43.530Z,21.35
2022-08-05T21:00:40.809Z,21.19
2022-08-05T21:03:08.323Z,21.00
2022-08-05T21:05:53.752Z,21.00
2022-08-05T21:08:41.413Z,20.87
2022-08-05T21:11:12.653Z,20.78
2022-08-05T21:13:47.766Z,20.83
2022-08-05T21:16:27.614Z,20.60
2022-08-05T21:19:01.675Z,20.58
2022-08-05T21:21:39.848Z,20.26
2022-08-05T21:24:22.277Z,20.07
2022-08-05T21:26:58.250Z,20.00
2022-08-05T21:29:31.850Z,19.84
2022-08-05T21:32:03.954Z,19.76
2022-08-05T21:34:35.618Z,19.68
2022-08-05T21:37:07.965Z,19.68
2022-08-05T21:39:40.441Z,19.74
2022-08-05T21:42:40.873Z,19.83
2022-08-05T21:45:01.276Z,19.92
2022-08-05T21:47:54.994Z,19.95
2022-08-05T21:50:22.173Z,20.08
2022-08-05T21:52:51.881Z,19.89
2022-08-05T21:55:43.156Z,19.81
2022-08-05T21:58:13.320Z,19.73
2022-08-05T22:00:50.965Z,19.71
2022-08-05T22:03:48.452Z,19.59
2022-08-05T22:06:11.518Z,19.53
2022-08-05T22:08:42.618Z,19.57
2022-08-05T22:11:15.714Z,19.57
2022-08-05T22:14:33.883Z,19.50
2022-08-05T22:16:51.043Z,19.37
2022-08-05T22:20:00.467Z,19.27
2022-08-05T22:22:12.049Z,19.21
2022-08-05T22:24:59.391Z,19.18
2022-08-05T22:28:10.496Z,19.07
2022-08-05T22:30:35.434Z,18.96
2022-08-05T22:33:15.643Z,18.88
2022-08-05T22:35:48.641Z,18.81
2022-08-05T22:38:19.797Z,18.73
2022-08-05T22:40:55.208Z,18.64
2022-08-05T22:43:37.015Z,18.58
2022-08-05T22:46:13.615Z,18.52
2022-08-05T22:48:52.966Z,18.34
2022-08-05T22:52:03.120Z,18.24
2022-08-05T22:54:12.299Z,18.14
2022-08-05T22:56:41.764Z,18.10
2022-08-05T22:59:46.500Z,17.93
2022-08-05T23:02:05.644Z,17.95
2022-08-05T23:04:37.634Z,17.91
2022-08-05T23:07:07.565Z,17.87
2022-08-05T23:09:58.310Z,17.80
2022-08-05T23:12:28.583Z,17.78
2022-08-05T23:15:00.192Z,17.70
2022-08-05T23:17:59.608Z,17.68
2022-08-05T23:20:24.422Z,17.60
2022-08-05T23:22:56.349Z,17.58
2022-08-05T23:25:51.905Z,17.53
2022-08-05T23:28:17.260Z,17.46
2022-08-05T23:30:53.735Z,17.49
2022-08-05T23:34:03.110Z,17.35
2022-08-05T23:36:14.457Z,17.41
2022-08-05T23:38:44.745Z,17.29
2022-08-05T23:41:14.355Z,17.23
2022-08-05T23:44:04.292Z,17.27
2022-08-05T23:46:34.693Z,17.26
2022-08-05T23:49:15.700Z,17.25
2022-08-05T23:52:03.233Z,17.25
2022-08-05T23:54:38.667Z,17.19
2022-08-05T23:57:10.250Z,17.19
